Aérodrome :
LOGIN :

S'inscrire | Disclaimer

   EN    FR    IT 

 










Légende :    VFR   VFR Marginal   IFR   IFR Intensif   IFR Très Intensif
Visi : 
Plafond : 
>= 8 km
>= 3000ft
5 à 8 km
1000 à 3000 ft
1500m à 5 km
500 à 1000 ft
800 à 1500m
200 à 500 ft
< 800m
< 200 ft
Symboles :   Orages  Brouillard  Fortes neiges  Fortes précipitations  Vent > 20 kt
SIGMETs :   Divers  Orages  Givrage  Turbulence  Onde Orograph.  Cendres Volcan.






- Altitude de l'aérodrome : 741 ft
- Code IATA : PED


LKPD - Pardubice AB

DERNIER METAR :
  • 141200Z 20009KT 9999 -RA SCT027 OVC037 04/00 Q0991 NOSIG RMK BLU BLU

METARs EXPIRÉS :
  • 141100Z 14005KT 120V190 9999 -RA BKN036 OVC052 04/01 Q0992 NOSIG RMK BLU BLU
  • 141000Z 22016KT 6000 -RA SCT026 OVC050 04/00 Q0993 NOSIG RMK WHT WHT

TAF TAF LKPD
Valide du 14 à 12h jusqu'au 15 à 12h UTC


141100Z 1412/1512 20010KT CAVOK
TEMPO 1412/1423 26018G30KT BKN040
TEMPO 1412/1418 6000 RA BKN020
BECMG 1507/1510 BKN035
TEMPO 1507/1512 22014KT 7000 RA BKN017



MET'MAP, la Météo Aéronautique d'un coup d'oeil ! - Copyright ORBIFLY Décembre 2007 - Disclaimer

ORBIFLY MET'MAP TEAM :

Programmation & Développement : Alexandra Zaïnal
Sur une idée originale de : Baudouin d'Aumeries
Assistance à la programmation : Marc-Olivier Méhu
Soutien technique & logistique : Manuel Goepfert

Contact : metmap@orbifly.com




SOURCES & CREDITS :

   NOAA